logo
Search for airport 
image banner adimage banner adimage banner ad
image banner ad

SNTL - Fazenda Treze Estrelas

Located in Araguaina, Brazil

ICAO - SNTL, IATA -

Data provided by Airmate  

General information

Coordinates: S7°13'8" W49°10'9"
Elevation is 774 feet MSL.
Magnetic variation is -20.943758701° East
View others Airports in Tocatins

Operational data

Special qualification required
Current time UTC:
Current local time:
Weather at : - ( 0 km )
METAR: PFWS 220820Z AUTO 18005KT 10SM -RA SCT012 BKN035 OVC055 03/03 A2975 RMK AO2 P0000
View NOTAMs / SUP AIP / TFR affecting this airport [VIEW]
Communications frequencies: [VIEW]

Runways:

RWY identifierQFULength (ft)Width (ft)SurfaceLDA (ft)
11328182GRAVEL
29328182GRAVEL

Airport contact information

Address: Araguaina Brazil

Satellite view of SNTL